• Join FlightAware (Why Join?)
  • Login
  • US Flag 
02:16PM EDT


 

Airport Tracker/Info


-or-


 

Live Flight TrackerFlight Track Log ✈ N609RL ✈ 14-Nov-2013 ✈ KUIN - KJYR

Flight Track Log - Related Links

Times and Time Zones

All times are in EST time to prevent confusion due to time zone crossing. See the N609RL flight status page for this flight to view local times or setup timezone preferences in your user account.

Time Position Orientation Groundspeed Altitude Reporting Facility
EST Latitude Longitude Course Direction KTS MPH feet Rate Location/Type
01:27PM 39.9617 -91.3144 281° West 100 115 3,500  Level Kansas City Center
01:28PM 39.9675 -91.3533 281° West 93 107 4,600 780 Climbing Kansas City Center
01:29PM 39.9739 -91.3861 284° West 93 107 5,200 600 Climbing Kansas City Center
01:30PM 39.9800 -91.4197 283° West 95 109 5,900 600 Climbing Kansas City Center
01:31PM 39.9856 -91.4531 282° West 95 109 6,500 540 Climbing Kansas City Center
01:32PM 39.9925 -91.4889 284° West 99 114 7,100 660 Climbing Kansas City Center
01:33PM 39.9994 -91.5333 282° West 105 121 7,900 660 Climbing Kansas City Center
01:34PM 40.0067 -91.5719 284° West 108 124 8,500 600 Climbing Kansas City Center
01:35PM 40.0122 -91.6100 281° West 108 124 9,200 660 Climbing Kansas City Center
01:36PM 40.0200 -91.6469 285° West 107 123 9,900 360 Climbing Kansas City Center
01:37PM 40.0267 -91.6900 281° West 117 135 10,000  Climbing Kansas City Center
01:38PM 40.0381 -91.7511 284° West 139 160 10,000  Level Kansas City Center
01:39PM 40.0469 -91.8011 283° West 144 166 10,100  Climbing Kansas City Center
01:40PM 40.0569 -91.8508 285° West 143 165 10,100  Level Kansas City Center
01:42PM 40.0650 -91.9019 282° West 144 166 10,100  Level Kansas City Center
01:43PM 40.0739 -91.9508 283° West 142 163 10,100  Level Kansas City Center
01:44PM 40.0814 -92.0003 281° West 140 161 10,100  Level Kansas City Center
01:45PM 40.0917 -92.0606 283° West 142 163 10,100  Level Kansas City Center
01:46PM 40.1000 -92.1103 282° West 141 162 10,100  Level Kansas City Center
01:47PM 40.1089 -92.1600 283° West 141 162 10,100  Level Kansas City Center
01:48PM 40.1169 -92.2083 282° West 138 159 10,100  Level Kansas City Center
01:49PM 40.1250 -92.2572 282° West 137 158 10,100  Level Kansas City Center
01:50PM 40.1358 -92.3167 283° West 140 161 10,100  Level Kansas City Center
01:51PM 40.1442 -92.3672 282° West 141 162 10,100  Level Kansas City Center
01:52PM 40.1528 -92.4156 283° West 140 161 10,100  Level Kansas City Center
01:53PM 40.1597 -92.4642 281° West 138 159 10,100  Level Kansas City Center
01:54PM 40.1689 -92.5128 284° West 137 158 10,100  Level Kansas City Center
01:55PM 40.1761 -92.5606 281° West 136 157 10,100  Level Kansas City Center
01:56PM 40.1861 -92.6186 283° West 136 157 10,100  Level Kansas City Center
01:57PM 40.1942 -92.6675 282° West 136 157 10,100  Level Kansas City Center
01:58PM 40.2019 -92.7164 282° West 137 158 10,100  Level Kansas City Center
01:59PM 40.2094 -92.7653 281° West 137 158 10,100  Level Kansas City Center
02:00PM 40.2178 -92.8136 283° West 137 158 10,100  Level Kansas City Center
02:01PM 40.2256 -92.8619 282° West 137 158 10,100  Level Kansas City Center
02:02PM 40.2347 -92.9217 281° West 139 160 10,100  Level Kansas City Center
02:03PM 40.2428 -92.9706 282° West 138 159 10,100  Level Kansas City Center
02:04PM 40.2506 -93.0189 282° West 137 158 10,100  Level Kansas City Center
02:05PM 40.2583 -93.0672 282° West 137 158 10,100  Level Kansas City Center
02:06PM 40.2661 -93.1158 282° West 137 158 10,100  Level Kansas City Center
02:07PM 40.2756 -93.1722 282° West 134 154 10,100  Level Kansas City Center
02:08PM 40.2822 -93.2208 280° West 136 157 10,100  Level Kansas City Center
02:09PM 40.2903 -93.2686 282° West 135 155 10,100  Level Kansas City Center
02:10PM 40.2972 -93.3158 281° West 134 154 10,100  Level Kansas City Center
02:12PM 40.3061 -93.3636 284° West 135 155 10,100  Level Kansas City Center
02:13PM 40.3147 -93.4217 281° West 137 158 10,100  Level Kansas City Center
02:14PM 40.3219 -93.4683 281° West 134 154 10,100  Level Kansas City Center
02:15PM 40.3297 -93.5175 282° West 137 158 10,100  Level Kansas City Center
02:16PM 40.3372 -93.5647 282° West 134 154 10,100  Level Kansas City Center
02:17PM 40.3450 -93.6119 282° West 134 154 10,100  Level Kansas City Center
02:18PM 40.3528 -93.6592 282° West 133 153 10,100  Level Kansas City Center
02:19PM 40.3608 -93.7161 281° West 133 153 10,100  Level Kansas City Center
02:20PM 40.3675 -93.7628 281° West 133 153 10,100  Level Kansas City Center
02:21PM 40.3753 -93.8106 282° West 133 153 10,100 -60 Level Kansas City Center
02:22PM 40.3803 -93.8497 280° West 134 154 10,000 -60 Descending Minneapolis Center
02:23PM 40.3872 -93.8975 281° West 134 154 10,000  Level Minneapolis Center
02:24PM 40.3958 -93.9442 284° West 133 153 10,000  Level Minneapolis Center
02:25PM 40.4017 -93.9917 279° West 132 152 10,000  Level Minneapolis Center
02:26PM 40.4100 -94.0394 283° West 134 154 10,000  Level Minneapolis Center
02:27PM 40.4169 -94.0872 281° West 135 155 10,000  Level Minneapolis Center
02:28PM 40.4258 -94.1442 282° West 134 154 10,000  Level Minneapolis Center
02:29PM 40.4325 -94.1919 280° West 134 154 10,000  Level Minneapolis Center
02:30PM 40.4400 -94.2414 281° West 137 158 10,000  Level Minneapolis Center
02:31PM 40.4481 -94.2903 282° West 138 159 10,000  Level Minneapolis Center
02:32PM 40.4550 -94.3386 281° West 137 158 10,000  Level Minneapolis Center
02:33PM 40.4639 -94.3989 281° West 141 162 10,000  Level Minneapolis Center
02:34PM 40.4711 -94.4489 281° West 140 161 10,000  Level Minneapolis Center
02:35PM 40.4772 -94.5003 279° West 142 163 10,000  Level Minneapolis Center
02:36PM 40.4861 -94.5489 284° West 140 161 10,000  Level Minneapolis Center
02:37PM 40.4931 -94.6047 279° West 140 161 10,000  Level Minneapolis Center
02:38PM 40.5028 -94.6539 285° West 139 160 10,000  Level Minneapolis Center
02:39PM 40.5108 -94.7050 282° West 141 162 10,000  Level Minneapolis Center
02:40PM 40.5164 -94.7572 278° West 143 165 10,100  Climbing Minneapolis Center
02:41PM 40.5261 -94.8214 281° West 148 170 10,000  Descending Minneapolis Center
02:42PM 40.5344 -94.8731 282° West 146 168 10,100  Climbing Minneapolis Center
02:43PM 40.5414 -94.9256 280° West 146 168 10,100 -60 Level Minneapolis Center
02:44PM 40.5489 -94.9758 281° West 142 163 10,000  Descending Minneapolis Center
02:45PM 40.5561 -95.0278 280° West 143 165 10,100  Climbing Minneapolis Center
02:46PM 40.5728 -95.0578 306° West 142 163 10,000 -120 Descending Minneapolis Center
02:46PM 40.5628 -95.0789 238° Southwest 143 165 10,000  Level Minneapolis Center
02:47PM 40.5781 -95.0983 316° Northwest 142 163 10,000  Level Minneapolis Center
02:47PM 40.5736 -95.1414 262° West 145 167 10,000  Level Minneapolis Center
02:48PM 40.5853 -95.1386 10° North 145 167 10,000  Level Minneapolis Center
02:48PM 40.5803 -95.1958 263° West 149 171 10,000 60 Level Minneapolis Center
02:49PM 40.5894 -95.1958 360° North 149 171 10,100  Climbing Minneapolis Center
02:49PM 40.5858 -95.2444 264° West 144 166 10,000 -120 Descending Minneapolis Center
02:50PM 40.5978 -95.2553 325° Northwest 140 161 10,000 60 Level Minneapolis Center
02:50PM 40.5933 -95.2953 262° West 141 162 10,100 60 Climbing Minneapolis Center
02:51PM 40.6036 -95.3067 320° Northwest 140 161 10,100 -120 Level Minneapolis Center
02:52PM 40.6008 -95.3481 265° West 143 165 10,000  Descending Minneapolis Center
02:52PM 40.6114 -95.3578 325° Northwest 144 166 10,100 60 Climbing Minneapolis Center
02:53PM 40.6083 -95.3994 264° West 144 166 10,100 -120 Level Minneapolis Center
02:53PM 40.6172 -95.4094 320° Northwest 145 167 10,000  Descending Minneapolis Center
02:54PM 40.6164 -95.4508 268° West 144 166 10,100  Climbing Minneapolis Center
02:54PM 40.6250 -95.4606 319° Northwest 142 163 10,000  Descending Minneapolis Center
02:55PM 40.6244 -95.5103 269° West 141 162 10,100  Climbing Minneapolis Center
02:55PM 40.6311 -95.5150 332° Northwest 143 165 10,000  Descending Minneapolis Center
02:56PM 40.6319 -95.5628 271° West 142 163 10,100 60 Climbing Minneapolis Center
02:56PM 40.6364 -95.5636 352° North 143 165 10,100 -120 Level Minneapolis Center
02:57PM 40.6378 -95.6133 272° West 142 163 10,000 -120 Descending Minneapolis Center
02:57PM 40.6422 -95.6153 342° North 141 162 10,000  Level Minneapolis Center
02:58PM 40.6453 -95.6653 275° West 142 163 10,000  Level Minneapolis Center
02:58PM 40.6500 -95.6692 328° Northwest 143 165 10,000  Level Minneapolis Center
02:59PM 40.6558 -95.7236 278° West 145 167 10,000  Level Minneapolis Center
03:00PM 40.6592 -95.7686 276° West 143 165 10,000 60 Level Minneapolis Center
03:00PM 40.6636 -95.7747 314° West 147 169 10,100 60 Climbing Minneapolis Center
03:01PM 40.6692 -95.8314 277° West 145 167 10,100  Level Minneapolis Center
03:01PM 40.6694 -95.8319 303° West 146 168 10,100  Level Minneapolis Center
03:02PM 40.6764 -95.8850 280° West 146 168 10,100  Level Minneapolis Center
03:02PM 40.6772 -95.8833 57° Northeast 147 169 10,100  Level Minneapolis Center
03:03PM 40.6831 -95.9372 278° West 146 168 10,100  Level Minneapolis Center
03:03PM 40.6828 -95.9347 98° East 148 170 10,100  Level Minneapolis Center
03:04PM 40.6886 -95.9897 278° West 146 168 10,100  Level Minneapolis Center
03:04PM 40.6886 -95.9919 270° West 145 167 10,100  Level Minneapolis Center
03:05PM 40.6978 -96.0419 284° West 146 168 10,100  Level Minneapolis Center
03:05PM 40.6961 -96.0433 212° Southwest 146 168 10,100  Level Minneapolis Center
03:06PM 40.7047 -96.0950 282° West 146 168 10,100  Level Minneapolis Center
03:06PM 40.7014 -96.0950 180° South 146 168 10,100 -120 Level Minneapolis Center
03:07PM 40.7092 -96.1464 281° West 145 167 10,000  Descending Minneapolis Center
03:08PM 40.7147 -96.2033 277° West 141 162 10,100  Climbing Minneapolis Center
03:09PM 40.7264 -96.2589 286° West 140 161 10,100  Level Minneapolis Center
03:10PM 40.7253 -96.3039 268° West 143 165 10,100  Level Minneapolis Center
03:10PM 40.7325 -96.3103 326° Northwest 140 161 10,100  Level Minneapolis Center
03:11PM 40.7403 -96.3639 281° West 145 167 10,100  Level Minneapolis Center
03:12PM 40.7383 -96.4097 267° West 144 166 10,100  Level Minneapolis Center
03:12PM 40.7453 -96.4167 323° Northwest 145 167 10,100  Level Minneapolis Center
03:13PM 40.7456 -96.4611 270° West 143 165 10,100  Level Minneapolis Center
03:13PM 40.7522 -96.4675 324° Northwest 144 166 10,100 -360 Level Minneapolis Center
03:14PM 40.7592 -96.5214 280° West 145 167 9,700 -420 Descending Minneapolis Center
03:15PM 40.7694 -96.5883 281° West 149 171 9,300 -420 Descending Minneapolis Center
03:16PM 40.7664 -96.6322 265° West 160 184 8,900 -420 Descending Minneapolis Center
03:16PM 40.7764 -96.6469 312° West 155 178 8,900 -300 Level Minneapolis Center
03:17PM 40.7742 -96.6892 266° West 160 184 8,600 -420 Descending Minneapolis Center
03:17PM 40.7850 -96.7039 314° West 157 181 8,500 -420 Descending Minneapolis Center
03:18PM 40.7819 -96.7489 265° West 156 180 8,200 -300 Descending Minneapolis Center
03:18PM 40.7939 -96.7614 322° Northwest 158 182 8,200 -420 Level Minneapolis Center
03:19PM 40.7894 -96.8086 263° West 161 185 7,800 -420 Descending Minneapolis Center
03:19PM 40.8025 -96.8192 329° Northwest 159 183 7,800 -360 Level Minneapolis Center
03:20PM 40.8069 -96.8800 276° West 162 186 7,400 -360 Descending Minneapolis Center
03:21PM 40.7875 -96.9389 246° West 172 198 7,100 -360 Descending Minneapolis Center
03:22PM 40.7700 -96.9994 249° West 177 204 6,700 -420 Descending Minneapolis Center
03:23PM 40.7464 -97.0739 247° West 180 207 6,300 -420 Descending Minneapolis Center
03:25PM 40.7261 -97.1347 246° West 181 208 5,900 -360 Descending Minneapolis Center
03:26PM 40.7072 -97.1969 248° West 182 209 5,600 -360 Descending Minneapolis Center
03:27PM 40.6872 -97.2564 246° West 181 208 5,200 -420 Descending Minneapolis Center
03:28PM 40.6689 -97.3178 249° West 180 207 4,800 -420 Descending Minneapolis Center
03:29PM 40.6519 -97.3764 249° West 175 201 4,400 -300 Descending Minneapolis Center
03:30PM 40.6333 -97.4469 251° West 175 201 4,300 -120 Descending Minneapolis Center